Boulder, Utah
Current Conditions -  °F | °C
As of 2:53 AM on Sunday 21 Dec 2014 (Local Time) from KBCE Reporting Station
Clear Clear  
Wind Chill: 20°   Ceiling: Unl
Heat Index: 31°   Visibility: 10mi
Dew Point: 24°   Wind: 16mph
Humidity: 76%   Direction: 300°WNW
Pressure: 30.11"   Gusts: NA
Location:  37.93°N, 111.43°W
Report Text: KBCE 210953Z AUTO 30014KT 10SM CLR M01/M04 A3011 RMK AO2 SLP164 T10061044
Loading
Personal Weather Stations






























Interactive Weather Map New forecast layout! Learn more

10-Day Weather Forecast

Advertisements
Track Severe Weather on mobile